createdAt,value
2022-10-19T00:01:30.469Z,102389.47
2022-10-19T00:03:56.911Z,102384.72
2022-10-19T00:06:26.412Z,102393.34
2022-10-19T00:08:55.512Z,102385.44
2022-10-19T00:11:23.681Z,102385.56
2022-10-19T00:13:50.911Z,102386.28
2022-10-19T00:16:18.844Z,102375.75
2022-10-19T00:18:46.085Z,102383.78
2022-10-19T00:21:16.535Z,102386.56
2022-10-19T00:23:44.006Z,102380.03
2022-10-19T00:26:10.869Z,102374.50
2022-10-19T00:28:37.297Z,102374.09
2022-10-19T00:31:09.950Z,102368.97
2022-10-19T00:33:36.822Z,102371.44
2022-10-19T00:36:04.613Z,102369.66
2022-10-19T00:38:31.383Z,102367.59
2022-10-19T00:40:58.261Z,102366.72
2022-10-19T00:43:29.007Z,102372.00
2022-10-19T00:45:55.451Z,102374.75
2022-10-19T00:48:25.812Z,102375.88
2022-10-19T00:50:56.056Z,102378.50
2022-10-19T00:53:26.180Z,102373.38
2022-10-19T00:55:52.918Z,102366.44
2022-10-19T00:58:19.487Z,102372.81
2022-10-19T01:00:46.048Z,102372.28
2022-10-19T01:03:13.949Z,102369.22
2022-10-19T01:05:41.155Z,102368.13
2022-10-19T01:08:09.309Z,102370.59
2022-10-19T01:10:57.239Z,102364.09
2022-10-19T01:13:30.158Z,102358.69
2022-10-19T01:16:06.397Z,102353.41
2022-10-19T01:19:01.443Z,102356.56
2022-10-19T01:21:39.226Z,102351.63
2022-10-19T01:24:08.405Z,102358.13
2022-10-19T01:27:00.803Z,102361.59
2022-10-19T01:29:58.231Z,102365.75
2022-10-19T01:32:33.791Z,102363.38
2022-10-19T01:35:10.039Z,102355.75
2022-10-19T01:38:11.605Z,102363.28
2022-10-19T01:40:53.983Z,102355.50
2022-10-19T01:43:24.754Z,102353.16
2022-10-19T01:45:58.259Z,102353.44
2022-10-19T01:48:32.218Z,102344.44
2022-10-19T01:51:22.855Z,102341.69
2022-10-19T01:53:57.214Z,102341.69
2022-10-19T01:56:27.210Z,102334.47
2022-10-19T01:58:56.532Z,102335.28
2022-10-19T02:01:26.606Z,102327.53
2022-10-19T02:03:54.234Z,102329.06
2022-10-19T02:06:20.940Z,102331.69
2022-10-19T02:08:50.418Z,102328.91
2022-10-19T02:11:18.004Z,102327.94
2022-10-19T02:13:47.561Z,102334.16
2022-10-19T02:16:20.321Z,102327.38
2022-10-19T02:18:50.601Z,102321.16
2022-10-19T02:21:18.067Z,102322.00
2022-10-19T02:23:46.727Z,102320.75
2022-10-19T02:26:13.904Z,102321.00
2022-10-19T02:28:40.522Z,102318.00
2022-10-19T02:31:07.021Z,102318.53
2022-10-19T02:33:33.898Z,102314.81
2022-10-19T02:36:00.810Z,102310.53
2022-10-19T02:38:27.756Z,102312.47
2022-10-19T02:41:04.027Z,102303.75
2022-10-19T02:43:33.720Z,102308.59
2022-10-19T02:46:05.985Z,102303.63
2022-10-19T02:48:35.024Z,102304.75
2022-10-19T02:51:02.196Z,102291.59
2022-10-19T02:53:28.991Z,102290.91
2022-10-19T02:55:55.354Z,102293.41
2022-10-19T02:58:21.907Z,102287.72
2022-10-19T03:00:48.353Z,102291.44
2022-10-19T03:03:14.853Z,102287.16
2022-10-19T03:05:41.339Z,102289.63
2022-10-19T03:08:07.775Z,102289.22
2022-10-19T03:10:34.217Z,102289.75
2022-10-19T03:13:00.616Z,102288.94
2022-10-19T03:15:29.694Z,102290.44
2022-10-19T03:17:56.917Z,102282.28
2022-10-19T03:20:23.736Z,102291.97
2022-10-19T03:22:50.272Z,102301.25
2022-10-19T03:25:16.822Z,102292.25
2022-10-19T03:27:43.205Z,102292.53
2022-10-19T03:30:09.978Z,102294.88
2022-10-19T03:32:36.383Z,102293.63
2022-10-19T03:35:02.807Z,102298.44
2022-10-19T03:37:29.209Z,102299.00
2022-10-19T03:39:55.609Z,102298.88
2022-10-19T03:42:22.004Z,102301.50
2022-10-19T03:44:48.453Z,102304.53
2022-10-19T03:47:14.827Z,102309.59
2022-10-19T03:49:41.920Z,102312.59
2022-10-19T03:52:10.022Z,102311.53
2022-10-19T03:54:36.494Z,102313.25
2022-10-19T03:57:02.984Z,102316.41
2022-10-19T03:59:29.470Z,102313.34
2022-10-19T04:01:55.810Z,102317.31
2022-10-19T04:04:22.278Z,102325.19
2022-10-19T04:06:50.042Z,102332.94
2022-10-19T04:09:19.964Z,102324.34
2022-10-19T04:11:46.834Z,102331.47
2022-10-19T04:14:22.828Z,102328.53
2022-10-19T04:17:00.066Z,102323.97
2022-10-19T04:19:26.485Z,102321.94
2022-10-19T04:21:52.937Z,102318.56
2022-10-19T04:24:19.559Z,102313.06
2022-10-19T04:26:51.208Z,102312.91
2022-10-19T04:29:19.379Z,102304.13
2022-10-19T04:31:48.582Z,102312.31
2022-10-19T04:34:15.115Z,102313.84
2022-10-19T04:36:41.558Z,102312.19
2022-10-19T04:39:09.016Z,102320.03
2022-10-19T04:41:37.241Z,102319.34
2022-10-19T04:44:04.770Z,102323.63
2022-10-19T04:46:31.238Z,102319.31
2022-10-19T04:48:58.546Z,102326.00
2022-10-19T04:51:25.984Z,102320.31
2022-10-19T04:53:55.563Z,102307.28
2022-10-19T04:56:29.063Z,102305.09
2022-10-19T04:58:57.426Z,102306.03
2022-10-19T05:01:25.144Z,102307.41
2022-10-19T05:04:10.716Z,102306.63
2022-10-19T05:06:37.462Z,102303.69
2022-10-19T05:09:04.142Z,102307.19
2022-10-19T05:11:30.645Z,102305.34
2022-10-19T05:13:57.531Z,102302.94
2022-10-19T05:16:24.424Z,102298.69
2022-10-19T05:18:53.064Z,102294.41
2022-10-19T05:21:20.842Z,102293.34
2022-10-19T05:23:50.627Z,102290.44
2022-10-19T05:26:19.437Z,102291.41
2022-10-19T05:28:50.714Z,102284.78
2022-10-19T05:31:20.221Z,102282.81
2022-10-19T05:33:47.442Z,102293.06
2022-10-19T05:36:43.237Z,102286.16
2022-10-19T05:39:14.303Z,102285.63
2022-10-19T05:41:43.817Z,102281.19
2022-10-19T05:44:15.749Z,102278.84
2022-10-19T05:46:42.863Z,102284.78
2022-10-19T05:49:10.818Z,102276.50
2022-10-19T05:51:37.282Z,102284.09
2022-10-19T05:54:03.991Z,102280.09
2022-10-19T05:56:31.800Z,102283.13
2022-10-19T05:59:01.342Z,102286.34
2022-10-19T06:01:28.841Z,102284.81
2022-10-19T06:03:57.483Z,102292.97
2022-10-19T06:06:24.799Z,102293.25
2022-10-19T06:08:52.874Z,102289.78
2022-10-19T06:11:21.916Z,102282.16
2022-10-19T06:13:50.679Z,102282.31
2022-10-19T06:16:18.635Z,102274.00
2022-10-19T06:18:45.706Z,102270.53
2022-10-19T06:21:19.746Z,102276.50
2022-10-19T06:23:53.474Z,102268.75
2022-10-19T06:26:20.940Z,102278.44
2022-10-19T06:28:48.210Z,102275.13
2022-10-19T06:31:14.883Z,102276.66
2022-10-19T06:33:44.274Z,102277.75
2022-10-19T06:36:13.810Z,102283.13
2022-10-19T06:38:41.043Z,102285.34
2022-10-19T06:41:07.679Z,102290.09
2022-10-19T06:43:34.647Z,102285.50
2022-10-19T06:46:08.019Z,102282.16
2022-10-19T06:48:34.707Z,102278.56
2022-10-19T06:51:06.207Z,102275.50
2022-10-19T06:53:36.277Z,102278.81
2022-10-19T06:56:06.029Z,102282.56
2022-10-19T06:58:39.183Z,102272.56
2022-10-19T07:01:10.157Z,102276.47
2022-10-19T07:03:36.826Z,102266.72
2022-10-19T07:06:06.330Z,102256.34
2022-10-19T07:08:32.981Z,102262.44
2022-10-19T07:11:02.901Z,102258.81
2022-10-19T07:13:30.262Z,102262.81
2022-10-19T07:16:07.704Z,102266.53
2022-10-19T07:18:36.243Z,102271.94
2022-10-19T07:21:08.995Z,102276.47
2022-10-19T07:23:37.270Z,102275.16
2022-10-19T07:26:06.146Z,102279.81
2022-10-19T07:28:33.053Z,102285.41
2022-10-19T07:31:05.389Z,102291.56
2022-10-19T07:33:31.939Z,102285.53
2022-10-19T07:35:59.932Z,102291.94
2022-10-19T07:38:26.490Z,102286.50
2022-10-19T07:41:11.050Z,102296.31
2022-10-19T07:43:37.452Z,102295.88
2022-10-19T07:46:10.375Z,102296.97
2022-10-19T07:48:36.937Z,102295.28
2022-10-19T07:51:05.655Z,102308.59
2022-10-19T07:53:32.465Z,102300.50
2022-10-19T07:56:15.198Z,102289.81
2022-10-19T07:58:42.539Z,102292.25
2022-10-19T08:01:10.884Z,102293.63
2022-10-19T08:06:24.536Z,102293.66
2022-10-19T08:08:51.933Z,102292.81
2022-10-19T08:11:19.713Z,102279.13
2022-10-19T08:13:46.542Z,102293.38
2022-10-19T08:16:34.158Z,102293.69
2022-10-19T08:19:05.663Z,102285.91
2022-10-19T08:21:32.186Z,102281.38
2022-10-19T08:23:59.958Z,102274.09
2022-10-19T08:26:29.338Z,102271.03
2022-10-19T08:29:08.014Z,102271.63
2022-10-19T08:31:34.760Z,102274.66
2022-10-19T08:34:01.337Z,102268.56
2022-10-19T08:36:31.082Z,102270.59
2022-10-19T08:38:58.160Z,102273.00
2022-10-19T08:41:39.577Z,102270.09
2022-10-19T08:44:40.242Z,102266.78
2022-10-19T08:47:35.727Z,102260.16
2022-10-19T08:50:03.096Z,102262.41
2022-10-19T08:52:35.573Z,102260.47
2022-10-19T08:55:09.113Z,102247.38
2022-10-19T08:57:55.893Z,102246.84
2022-10-19T09:00:52.407Z,102242.63
2022-10-19T09:03:37.680Z,102243.53
2022-10-19T09:06:44.614Z,102244.59
2022-10-19T09:09:13.671Z,102236.56
2022-10-19T09:11:44.350Z,102224.63
2022-10-19T09:14:20.775Z,102228.97
2022-10-19T09:16:47.282Z,102219.94
2022-10-19T09:19:29.304Z,102215.47
2022-10-19T09:22:05.865Z,102209.38
2022-10-19T09:24:54.517Z,102204.16
2022-10-19T09:27:24.185Z,102200.53
2022-10-19T09:29:55.249Z,102199.47
2022-10-19T09:32:27.759Z,102203.81
2022-10-19T09:34:58.785Z,102209.88
2022-10-19T09:37:26.908Z,102205.13
2022-10-19T09:39:55.588Z,102201.84
2022-10-19T09:42:33.857Z,102206.63
2022-10-19T09:45:11.978Z,102199.31
2022-10-19T09:47:40.872Z,102201.41
2022-10-19T09:50:23.980Z,102199.63
2022-10-19T09:52:53.258Z,102198.16
2022-10-19T09:55:39.106Z,102202.72
2022-10-19T09:58:30.495Z,102197.38
2022-10-19T10:01:00.795Z,102194.19
2022-10-19T10:03:33.291Z,102187.28
2022-10-19T10:06:09.627Z,102187.63
2022-10-19T10:08:46.099Z,102185.91
2022-10-19T10:11:16.085Z,102189.34
2022-10-19T10:13:51.629Z,102186.28
2022-10-19T10:16:21.705Z,102185.16
2022-10-19T10:18:54.255Z,102182.19
2022-10-19T10:21:26.932Z,102179.09
2022-10-19T10:24:13.136Z,102184.16
2022-10-19T10:26:42.445Z,102186.72
2022-10-19T10:29:25.730Z,102184.00
2022-10-19T10:31:54.241Z,102184.66
2022-10-19T10:34:54.007Z,102178.31
2022-10-19T10:37:29.664Z,102177.28
2022-10-19T10:40:04.608Z,102175.84
2022-10-19T10:42:45.001Z,102174.66
2022-10-19T10:45:29.290Z,102165.59
2022-10-19T10:47:56.847Z,102156.06
2022-10-19T10:50:34.473Z,102149.78
2022-10-19T10:53:06.667Z,102154.03
2022-10-19T10:55:33.766Z,102155.31
2022-10-19T10:58:39.757Z,102161.31
2022-10-19T11:01:13.460Z,102160.16
2022-10-19T11:03:47.765Z,102146.19
2022-10-19T11:06:14.488Z,102152.38
2022-10-19T11:08:41.011Z,102139.63
2022-10-19T11:11:30.368Z,102135.41
2022-10-19T11:14:17.826Z,102130.53
2022-10-19T11:16:46.820Z,102130.25
2022-10-19T11:19:23.773Z,102128.81
2022-10-19T11:21:57.532Z,102115.69
2022-10-19T11:24:26.887Z,102117.59
2022-10-19T11:27:24.830Z,102102.81
2022-10-19T11:30:15.197Z,102096.41
2022-10-19T11:32:47.504Z,102093.00
2022-10-19T11:35:35.859Z,102100.13
2022-10-19T11:38:30.020Z,102095.00
2022-10-19T11:41:34.591Z,102086.03
2022-10-19T11:44:26.895Z,102073.06
2022-10-19T11:47:36.749Z,102067.69
2022-10-19T11:50:14.918Z,102069.81
2022-10-19T11:53:06.016Z,102082.38
2022-10-19T11:55:41.602Z,102066.94
2022-10-19T11:58:45.705Z,102065.63
2022-10-19T12:01:19.502Z,102063.13
2022-10-19T12:03:54.998Z,102060.91
2022-10-19T12:06:36.056Z,102056.03
2022-10-19T12:09:24.512Z,102046.13
2022-10-19T12:11:56.105Z,102041.31
2022-10-19T12:14:30.214Z,102033.03
2022-10-19T12:17:01.469Z,102026.38
2022-10-19T12:19:34.830Z,102027.25
2022-10-19T12:22:05.310Z,102027.44
2022-10-19T12:24:33.611Z,102021.56
2022-10-19T12:27:01.957Z,102022.44
2022-10-19T12:29:36.198Z,102010.50
2022-10-19T12:32:04.645Z,102006.72
2022-10-19T12:35:03.260Z,102008.78
2022-10-19T12:38:08.877Z,102000.81
2022-10-19T12:40:55.914Z,101996.66
2022-10-19T12:43:41.123Z,101987.38
2022-10-19T12:46:51.664Z,101975.88
2022-10-19T12:49:28.971Z,101972.03
2022-10-19T12:51:57.367Z,101970.28
2022-10-19T12:54:25.955Z,101969.97
2022-10-19T12:56:55.117Z,101965.34
2022-10-19T12:59:31.283Z,101960.13
2022-10-19T13:01:59.200Z,101953.53
2022-10-19T13:04:32.918Z,101943.13
2022-10-19T13:07:10.541Z,101943.31
2022-10-19T13:09:39.764Z,101942.91
2022-10-19T13:12:19.463Z,101940.19
2022-10-19T13:14:56.380Z,101933.41
2022-10-19T13:17:35.071Z,101927.94
2022-10-19T13:20:13.871Z,101925.84
2022-10-19T13:23:11.187Z,101918.53
2022-10-19T13:25:41.619Z,101918.53
2022-10-19T13:28:09.222Z,101898.56
2022-10-19T13:30:35.552Z,101902.84
2022-10-19T13:33:32.607Z,101896.41
2022-10-19T13:35:58.954Z,101897.91
2022-10-19T13:38:40.598Z,101904.22
2022-10-19T13:41:11.929Z,101908.06
2022-10-19T13:43:43.856Z,101902.56
2022-10-19T13:46:16.352Z,101902.34
2022-10-19T13:49:01.818Z,101902.91
2022-10-19T13:51:34.225Z,101892.50
2022-10-19T13:54:28.744Z,101888.00
2022-10-19T13:57:06.511Z,101893.66
2022-10-19T13:59:56.172Z,101892.19
2022-10-19T14:02:58.796Z,101890.22
2022-10-19T14:05:43.424Z,101892.75
2022-10-19T14:08:25.064Z,101887.50
2022-10-19T14:11:01.434Z,101885.50
2022-10-19T14:13:28.684Z,101884.00
2022-10-19T14:15:57.119Z,101889.59
2022-10-19T14:18:30.315Z,101877.41
2022-10-19T14:20:58.000Z,101877.28
2022-10-19T14:23:25.983Z,101876.41
2022-10-19T14:25:57.064Z,101875.84
2022-10-19T14:28:24.520Z,101879.69
2022-10-19T14:31:07.397Z,101869.63
2022-10-19T14:33:37.809Z,101869.97
2022-10-19T14:36:05.950Z,101870.78
2022-10-19T14:38:37.283Z,101869.44
2022-10-19T14:41:06.009Z,101861.84
2022-10-19T14:43:34.879Z,101869.31
2022-10-19T14:46:07.090Z,101857.84
2022-10-19T14:48:39.455Z,101863.19
2022-10-19T14:51:16.973Z,101853.34
2022-10-19T14:54:09.294Z,101856.63
2022-10-19T14:56:52.703Z,101852.34
2022-10-19T14:59:31.646Z,101849.06
2022-10-19T15:02:03.911Z,101842.47
2022-10-19T15:04:34.368Z,101838.53
2022-10-19T15:07:04.419Z,101843.81
2022-10-19T15:09:47.937Z,101837.22
2022-10-19T15:12:18.111Z,101830.88
2022-10-19T15:14:46.038Z,101826.63
2022-10-19T15:17:25.330Z,101823.97
2022-10-19T15:19:53.573Z,101823.75
2022-10-19T15:22:30.554Z,101825.47
2022-10-19T15:25:06.056Z,101822.19
2022-10-19T15:27:36.531Z,101817.06
2022-10-19T15:30:18.302Z,101820.34
2022-10-19T15:32:57.296Z,101814.97
2022-10-19T15:35:39.530Z,101810.66
2022-10-19T15:38:19.486Z,101804.50
2022-10-19T15:40:46.946Z,101799.97
2022-10-19T15:43:34.272Z,101802.00
2022-10-19T15:46:02.398Z,101797.44
2022-10-19T15:48:55.246Z,101800.88
2022-10-19T15:51:24.674Z,101784.41
2022-10-19T15:53:52.709Z,101780.50
2022-10-19T15:56:20.146Z,101786.97
2022-10-19T15:58:51.346Z,101787.44
2022-10-19T16:01:19.893Z,101777.94
2022-10-19T16:03:46.542Z,101773.97
2022-10-19T16:06:13.196Z,101778.81
2022-10-19T16:08:39.641Z,101763.41
2022-10-19T16:11:06.087Z,101776.25
2022-10-19T16:13:33.399Z,101769.16
2022-10-19T16:16:11.205Z,101768.66
2022-10-19T16:18:38.736Z,101764.53
2022-10-19T16:21:05.483Z,101770.25
2022-10-19T16:23:36.573Z,101768.66
2022-10-19T16:26:06.483Z,101766.09
2022-10-19T16:28:32.912Z,101758.78
2022-10-19T16:30:59.382Z,101770.00
2022-10-19T16:33:25.743Z,101755.22
2022-10-19T16:35:52.158Z,101756.88
2022-10-19T16:38:18.548Z,101752.28
2022-10-19T16:40:44.963Z,101749.47
2022-10-19T16:43:11.455Z,101746.56
2022-10-19T16:45:42.309Z,101745.53
2022-10-19T16:48:12.699Z,101740.03
2022-10-19T16:50:39.427Z,101737.78
2022-10-19T16:53:10.345Z,101749.25
2022-10-19T16:55:37.611Z,101750.22
2022-10-19T16:58:04.444Z,101751.47
2022-10-19T17:00:31.404Z,101747.25
2022-10-19T17:02:57.985Z,101750.34
2022-10-19T17:05:24.771Z,101748.69
2022-10-19T17:07:51.157Z,101741.34
2022-10-19T17:10:17.759Z,101750.72
2022-10-19T17:12:44.325Z,101746.63
2022-10-19T17:15:41.026Z,101748.94
2022-10-19T17:17:58.028Z,101747.16
2022-10-19T17:20:24.424Z,101739.72
2022-10-19T17:22:53.978Z,101745.06
2022-10-19T17:25:20.357Z,101740.94
2022-10-19T17:27:50.771Z,101738.94
2022-10-19T17:30:17.304Z,101738.53
2022-10-19T17:32:43.810Z,101739.50
2022-10-19T17:35:10.330Z,101733.66
2022-10-19T17:37:37.103Z,101731.66
2022-10-19T17:40:04.109Z,101728.38
2022-10-19T17:42:31.105Z,101728.44
2022-10-19T17:44:57.737Z,101718.22
2022-10-19T17:47:24.256Z,101720.22
2022-10-19T17:49:50.634Z,101729.09
2022-10-19T17:52:17.067Z,101723.47
2022-10-19T17:54:48.821Z,101718.34
2022-10-19T17:57:29.885Z,101724.16
2022-10-19T17:59:56.361Z,101721.50
2022-10-19T18:02:22.843Z,101714.78
2022-10-19T18:04:49.251Z,101716.44
2022-10-19T18:07:16.049Z,101719.66
2022-10-19T18:09:42.571Z,101722.38
2022-10-19T18:12:13.244Z,101723.69
2022-10-19T18:14:40.265Z,101726.22
2022-10-19T18:17:07.009Z,101725.03
2022-10-19T18:19:33.862Z,101734.44
2022-10-19T18:22:00.321Z,101733.50
2022-10-19T18:24:26.688Z,101726.53
2022-10-19T18:26:53.194Z,101721.94
2022-10-19T18:29:22.844Z,101725.25
2022-10-19T18:31:52.440Z,101720.09
2022-10-19T18:34:26.170Z,101709.13
2022-10-19T18:36:53.113Z,101715.53
2022-10-19T18:39:19.928Z,101719.03
2022-10-19T18:41:51.670Z,101719.66
2022-10-19T18:44:22.170Z,101714.91
2022-10-19T18:46:52.488Z,101711.25
2022-10-19T18:49:18.914Z,101716.84
2022-10-19T18:51:50.644Z,101722.50
2022-10-19T18:54:20.591Z,101721.69
2022-10-19T18:56:47.083Z,101718.53
2022-10-19T18:59:13.520Z,101709.88
2022-10-19T19:01:40.093Z,101691.56
2022-10-19T19:04:09.552Z,101691.97
2022-10-19T19:06:37.127Z,101681.56
2022-10-19T19:09:07.187Z,101685.25
2022-10-19T19:11:36.903Z,101684.22
2022-10-19T19:14:12.025Z,101683.13
2022-10-19T19:16:39.554Z,101669.13
2022-10-19T19:19:06.756Z,101669.28
2022-10-19T19:21:35.085Z,101662.31
2022-10-19T19:24:03.923Z,101660.69
2022-10-19T19:26:33.037Z,101656.38
2022-10-19T19:28:59.869Z,101661.84
2022-10-19T19:31:26.961Z,101660.63
2022-10-19T19:33:53.483Z,101652.75
2022-10-19T19:36:20.601Z,101653.16
2022-10-19T19:38:49.052Z,101650.50
2022-10-19T19:41:16.129Z,101649.22
2022-10-19T19:43:43.691Z,101646.38
2022-10-19T19:46:13.876Z,101646.03
2022-10-19T19:48:42.494Z,101646.19
2022-10-19T19:51:14.442Z,101650.59
2022-10-19T19:53:40.891Z,101657.94
2022-10-19T19:56:08.885Z,101653.66
2022-10-19T19:58:35.785Z,101648.31
2022-10-19T20:01:12.292Z,101646.47
2022-10-19T20:03:41.073Z,101634.69
2022-10-19T20:06:08.393Z,101635.75
2022-10-19T20:08:36.836Z,101638.84
2022-10-19T20:11:18.456Z,101634.00
2022-10-19T20:13:45.775Z,101630.16
2022-10-19T20:16:17.755Z,101631.13
2022-10-19T20:18:48.285Z,101633.63
2022-10-19T20:21:18.265Z,101622.88
2022-10-19T20:23:52.035Z,101621.78
2022-10-19T20:26:22.987Z,101622.63
2022-10-19T20:28:52.120Z,101615.84
2022-10-19T20:31:18.963Z,101615.69
2022-10-19T20:33:47.296Z,101620.44
2022-10-19T20:36:25.626Z,101622.97
2022-10-19T20:38:54.547Z,101616.22
2022-10-19T20:41:22.928Z,101615.06
2022-10-19T20:43:52.294Z,101611.88
2022-10-19T20:46:27.689Z,101602.19
2022-10-19T20:48:56.380Z,101600.88
2022-10-19T20:51:35.063Z,101598.84
2022-10-19T20:54:08.525Z,101585.16
2022-10-19T20:56:37.885Z,101589.31
2022-10-19T20:59:23.317Z,101579.38
2022-10-19T21:01:51.441Z,101576.81
2022-10-19T21:04:18.245Z,101577.84
2022-10-19T21:06:47.250Z,101583.22
2022-10-19T21:09:20.124Z,101580.09
2022-10-19T21:11:50.935Z,101580.09
2022-10-19T21:14:28.177Z,101571.22
2022-10-19T21:16:57.560Z,101564.00
2022-10-19T21:19:26.294Z,101564.94
2022-10-19T21:21:55.653Z,101558.75
2022-10-19T21:24:24.958Z,101552.19
2022-10-19T21:29:22.932Z,101553.66
2022-10-19T21:31:52.039Z,101557.78
2022-10-19T21:34:21.703Z,101553.81
2022-10-19T21:36:48.729Z,101548.38
2022-10-19T21:39:15.734Z,101548.09
2022-10-19T21:41:42.176Z,101551.72
2022-10-19T21:44:08.842Z,101546.66
2022-10-19T21:46:35.329Z,101544.34
2022-10-19T21:49:01.875Z,101543.06
2022-10-19T21:51:42.592Z,101536.09
2022-10-19T21:54:12.282Z,101525.03
2022-10-19T21:56:38.712Z,101525.69
2022-10-19T21:59:05.157Z,101519.16
2022-10-19T22:01:37.215Z,101521.16
2022-10-19T22:04:08.311Z,101523.31
2022-10-19T22:06:36.553Z,101533.31
2022-10-19T22:09:05.353Z,101522.25
2022-10-19T22:11:31.890Z,101530.50
2022-10-19T22:14:00.764Z,101530.81
2022-10-19T22:16:28.310Z,101532.44
2022-10-19T22:18:55.625Z,101526.84
2022-10-19T22:21:30.971Z,101514.72
2022-10-19T22:24:03.532Z,101506.38
2022-10-19T22:26:32.025Z,101504.38
2022-10-19T22:29:00.137Z,101502.34
2022-10-19T22:31:28.781Z,101493.94
2022-10-19T22:33:55.465Z,101495.22
2022-10-19T22:36:21.893Z,101495.69
2022-10-19T22:38:48.741Z,101500.13
2022-10-19T22:41:15.130Z,101487.63
2022-10-19T22:43:41.706Z,101479.38
2022-10-19T22:46:08.138Z,101469.53
2022-10-19T22:48:34.616Z,101469.88
2022-10-19T22:51:01.049Z,101462.78
2022-10-19T22:53:27.540Z,101462.59
2022-10-19T22:55:53.975Z,101452.19
2022-10-19T22:58:20.446Z,101449.38
2022-10-19T23:01:00.870Z,101450.19
2022-10-19T23:03:27.237Z,101440.63
2022-10-19T23:05:53.580Z,101429.63
2022-10-19T23:08:20.038Z,101430.22
2022-10-19T23:10:46.495Z,101426.41
2022-10-19T23:13:12.892Z,101429.19
2022-10-19T23:15:43.094Z,101421.81
2022-10-19T23:18:11.156Z,101417.88
2022-10-19T23:20:37.586Z,101410.28
2022-10-19T23:23:04.153Z,101402.59
2022-10-19T23:28:02.015Z,101393.22
2022-10-19T23:30:28.431Z,101393.53
2022-10-19T23:32:54.863Z,101387.94
2022-10-19T23:35:21.246Z,101370.06
2022-10-19T23:37:47.664Z,101376.88
2022-10-19T23:40:14.136Z,101367.41
2022-10-19T23:42:40.526Z,101366.75
2022-10-19T23:45:07.344Z,101367.72
2022-10-19T23:47:34.013Z,101361.28
2022-10-19T23:50:00.617Z,101366.56
2022-10-19T23:52:26.968Z,101366.03
2022-10-19T23:54:53.411Z,101360.22
2022-10-19T23:57:19.811Z,101364.47
2022-10-19T23:59:46.224Z,101369.22
